sensor_id;sensor_type;location;lat;lon;timestamp;P1;durP1;ratioP1;P2;durP2;ratioP2
12480;SDS011;6305;48.398;11.762;2023-07-13T00:01:51;27.05;;;15.40;;
12480;SDS011;6305;48.398;11.762;2023-07-13T00:04:19;25.27;;;15.52;;
12480;SDS011;6305;48.398;11.762;2023-07-13T00:06:50;26.92;;;15.07;;
12480;SDS011;6305;48.398;11.762;2023-07-13T00:09:18;25.75;;;14.77;;
12480;SDS011;6305;48.398;11.762;2023-07-13T00:11:50;25.60;;;15.45;;
12480;SDS011;6305;48.398;11.762;2023-07-13T00:14:18;26.90;;;14.98;;
12480;SDS011;6305;48.398;11.762;2023-07-13T00:16:45;21.85;;;14.27;;
12480;SDS011;6305;48.398;11.762;2023-07-13T00:19:12;25.48;;;14.63;;
12480;SDS011;6305;48.398;11.762;2023-07-13T00:21:40;22.58;;;13.63;;
12480;SDS011;6305;48.398;11.762;2023-07-13T00:24:07;23.35;;;14.43;;
12480;SDS011;6305;48.398;11.762;2023-07-13T00:26:38;25.48;;;14.43;;
12480;SDS011;6305;48.398;11.762;2023-07-13T00:29:07;25.17;;;14.45;;
12480;SDS011;6305;48.398;11.762;2023-07-13T00:31:34;26.58;;;14.25;;
12480;SDS011;6305;48.398;11.762;2023-07-13T00:34:02;26.63;;;14.57;;
12480;SDS011;6305;48.398;11.762;2023-07-13T00:36:30;25.35;;;14.57;;
12480;SDS011;6305;48.398;11.762;2023-07-13T00:38:58;22.00;;;13.50;;
12480;SDS011;6305;48.398;11.762;2023-07-13T00:41:25;22.63;;;13.15;;
12480;SDS011;6305;48.398;11.762;2023-07-13T00:43:52;21.77;;;12.98;;
12480;SDS011;6305;48.398;11.762;2023-07-13T00:46:22;19.13;;;12.23;;
12480;SDS011;6305;48.398;11.762;2023-07-13T00:48:51;19.92;;;12.25;;
12480;SDS011;6305;48.398;11.762;2023-07-13T00:51:23;21.08;;;12.07;;
12480;SDS011;6305;48.398;11.762;2023-07-13T00:53:55;17.35;;;11.50;;
12480;SDS011;6305;48.398;11.762;2023-07-13T00:56:24;18.73;;;11.43;;
12480;SDS011;6305;48.398;11.762;2023-07-13T00:58:51;16.85;;;10.93;;
12480;SDS011;6305;48.398;11.762;2023-07-13T01:01:19;14.32;;;10.45;;
12480;SDS011;6305;48.398;11.762;2023-07-13T01:03:48;19.20;;;11.55;;
12480;SDS011;6305;48.398;11.762;2023-07-13T01:06:15;16.40;;;10.63;;
12480;SDS011;6305;48.398;11.762;2023-07-13T01:08:43;16.45;;;10.65;;
12480;SDS011;6305;48.398;11.762;2023-07-13T01:11:11;19.60;;;10.90;;
12480;SDS011;6305;48.398;11.762;2023-07-13T01:13:37;18.27;;;11.00;;
12480;SDS011;6305;48.398;11.762;2023-07-13T01:16:05;16.45;;;10.23;;
12480;SDS011;6305;48.398;11.762;2023-07-13T01:18:41;13.02;;;9.70;;
12480;SDS011;6305;48.398;11.762;2023-07-13T01:21:09;14.68;;;10.43;;
12480;SDS011;6305;48.398;11.762;2023-07-13T01:23:39;15.50;;;9.73;;
12480;SDS011;6305;48.398;11.762;2023-07-13T01:26:06;14.05;;;9.90;;
12480;SDS011;6305;48.398;11.762;2023-07-13T01:28:35;14.85;;;9.90;;
12480;SDS011;6305;48.398;11.762;2023-07-13T01:31:03;16.48;;;10.10;;
12480;SDS011;6305;48.398;11.762;2023-07-13T01:33:30;18.52;;;10.48;;
12480;SDS011;6305;48.398;11.762;2023-07-13T01:35:57;17.13;;;9.50;;
12480;SDS011;6305;48.398;11.762;2023-07-13T01:38:25;14.05;;;9.55;;
12480;SDS011;6305;48.398;11.762;2023-07-13T01:40:53;13.82;;;9.68;;
12480;SDS011;6305;48.398;11.762;2023-07-13T01:43:22;15.35;;;9.63;;
12480;SDS011;6305;48.398;11.762;2023-07-13T01:45:49;14.82;;;9.73;;
12480;SDS011;6305;48.398;11.762;2023-07-13T01:48:15;15.50;;;10.25;;
12480;SDS011;6305;48.398;11.762;2023-07-13T01:50:43;16.38;;;10.48;;
12480;SDS011;6305;48.398;11.762;2023-07-13T01:53:10;15.88;;;10.25;;
12480;SDS011;6305;48.398;11.762;2023-07-13T01:55:39;15.52;;;10.45;;
12480;SDS011;6305;48.398;11.762;2023-07-13T01:58:07;16.30;;;9.65;;
12480;SDS011;6305;48.398;11.762;2023-07-13T02:00:35;15.60;;;9.38;;
12480;SDS011;6305;48.398;11.762;2023-07-13T02:03:02;15.27;;;9.52;;
12480;SDS011;6305;48.398;11.762;2023-07-13T02:05:31;11.70;;;8.75;;
12480;SDS011;6305;48.398;11.762;2023-07-13T02:07:58;12.75;;;9.40;;
12480;SDS011;6305;48.398;11.762;2023-07-13T02:10:25;11.27;;;8.63;;
12480;SDS011;6305;48.398;11.762;2023-07-13T02:12:55;12.65;;;9.75;;
12480;SDS011;6305;48.398;11.762;2023-07-13T02:15:22;12.32;;;9.30;;
12480;SDS011;6305;48.398;11.762;2023-07-13T02:17:48;21.33;;;10.30;;
12480;SDS011;6305;48.398;11.762;2023-07-13T02:20:15;14.57;;;9.02;;
12480;SDS011;6305;48.398;11.762;2023-07-13T02:22:43;16.10;;;9.07;;
12480;SDS011;6305;48.398;11.762;2023-07-13T02:25:10;14.20;;;8.88;;
12480;SDS011;6305;48.398;11.762;2023-07-13T02:27:36;15.98;;;9.63;;
12480;SDS011;6305;48.398;11.762;2023-07-13T02:30:06;13.95;;;9.45;;
12480;SDS011;6305;48.398;11.762;2023-07-13T02:32:34;16.08;;;9.60;;
12480;SDS011;6305;48.398;11.762;2023-07-13T02:35:01;12.57;;;9.30;;
12480;SDS011;6305;48.398;11.762;2023-07-13T02:37:29;15.40;;;8.32;;
12480;SDS011;6305;48.398;11.762;2023-07-13T02:39:56;14.60;;;9.35;;
12480;SDS011;6305;48.398;11.762;2023-07-13T02:42:23;16.48;;;9.63;;
12480;SDS011;6305;48.398;11.762;2023-07-13T02:44:50;13.52;;;9.02;;
12480;SDS011;6305;48.398;11.762;2023-07-13T02:47:18;11.32;;;8.65;;
12480;SDS011;6305;48.398;11.762;2023-07-13T02:49:45;13.73;;;8.80;;
12480;SDS011;6305;48.398;11.762;2023-07-13T02:52:12;14.95;;;9.05;;
12480;SDS011;6305;48.398;11.762;2023-07-13T02:54:40;15.88;;;9.70;;
12480;SDS011;6305;48.398;11.762;2023-07-13T02:57:06;14.70;;;8.95;;
12480;SDS011;6305;48.398;11.762;2023-07-13T02:59:33;14.38;;;9.68;;
12480;SDS011;6305;48.398;11.762;2023-07-13T03:02:01;13.98;;;10.07;;
12480;SDS011;6305;48.398;11.762;2023-07-13T03:04:30;14.45;;;10.18;;
12480;SDS011;6305;48.398;11.762;2023-07-13T03:06:57;14.60;;;9.32;;
12480;SDS011;6305;48.398;11.762;2023-07-13T03:09:29;16.98;;;10.23;;
12480;SDS011;6305;48.398;11.762;2023-07-13T03:11:59;16.90;;;10.35;;
12480;SDS011;6305;48.398;11.762;2023-07-13T03:14:29;18.65;;;11.77;;
12480;SDS011;6305;48.398;11.762;2023-07-13T03:16:57;15.77;;;10.20;;
12480;SDS011;6305;48.398;11.762;2023-07-13T03:19:27;16.65;;;10.48;;
12480;SDS011;6305;48.398;11.762;2023-07-13T03:21:55;15.27;;;10.48;;
12480;SDS011;6305;48.398;11.762;2023-07-13T03:24:22;20.88;;;10.77;;
12480;SDS011;6305;48.398;11.762;2023-07-13T03:26:51;16.88;;;11.23;;
12480;SDS011;6305;48.398;11.762;2023-07-13T03:29:18;18.60;;;10.95;;
12480;SDS011;6305;48.398;11.762;2023-07-13T03:31:45;17.50;;;11.02;;
12480;SDS011;6305;48.398;11.762;2023-07-13T03:34:13;21.00;;;12.05;;
12480;SDS011;6305;48.398;11.762;2023-07-13T03:36:41;19.92;;;11.57;;
12480;SDS011;6305;48.398;11.762;2023-07-13T03:39:12;18.40;;;12.35;;
12480;SDS011;6305;48.398;11.762;2023-07-13T03:41:45;20.25;;;13.18;;
12480;SDS011;6305;48.398;11.762;2023-07-13T03:44:13;21.13;;;12.10;;
12480;SDS011;6305;48.398;11.762;2023-07-13T03:46:42;20.15;;;13.02;;
12480;SDS011;6305;48.398;11.762;2023-07-13T03:49:09;22.15;;;12.65;;
12480;SDS011;6305;48.398;11.762;2023-07-13T03:51:36;21.38;;;12.48;;
12480;SDS011;6305;48.398;11.762;2023-07-13T03:54:04;20.77;;;11.68;;
12480;SDS011;6305;48.398;11.762;2023-07-13T03:56:33;22.75;;;12.80;;
12480;SDS011;6305;48.398;11.762;2023-07-13T03:59:02;21.58;;;13.35;;
12480;SDS011;6305;48.398;11.762;2023-07-13T04:01:29;20.75;;;11.70;;
12480;SDS011;6305;48.398;11.762;2023-07-13T04:03:57;19.23;;;12.60;;
12480;SDS011;6305;48.398;11.762;2023-07-13T04:06:26;19.50;;;12.45;;
12480;SDS011;6305;48.398;11.762;2023-07-13T04:08:55;19.77;;;12.82;;
12480;SDS011;6305;48.398;11.762;2023-07-13T04:11:24;19.05;;;12.77;;
12480;SDS011;6305;48.398;11.762;2023-07-13T04:13:55;18.75;;;12.77;;
12480;SDS011;6305;48.398;11.762;2023-07-13T04:16:22;19.90;;;11.88;;
12480;SDS011;6305;48.398;11.762;2023-07-13T04:18:49;21.88;;;12.30;;
12480;SDS011;6305;48.398;11.762;2023-07-13T04:21:20;19.90;;;13.00;;
12480;SDS011;6305;48.398;11.762;2023-07-13T04:23:47;20.83;;;13.18;;
12480;SDS011;6305;48.398;11.762;2023-07-13T04:26:14;19.25;;;12.45;;
12480;SDS011;6305;48.398;11.762;2023-07-13T04:28:41;17.35;;;12.02;;
12480;SDS011;6305;48.398;11.762;2023-07-13T04:31:09;21.65;;;13.23;;
12480;SDS011;6305;48.398;11.762;2023-07-13T04:33:36;21.13;;;12.27;;
12480;SDS011;6305;48.398;11.762;2023-07-13T04:36:04;18.50;;;11.85;;
12480;SDS011;6305;48.398;11.762;2023-07-13T04:38:32;19.60;;;12.88;;
12480;SDS011;6305;48.398;11.762;2023-07-13T04:41:00;18.00;;;12.73;;
12480;SDS011;6305;48.398;11.762;2023-07-13T04:43:29;17.70;;;12.10;;
12480;SDS011;6305;48.398;11.762;2023-07-13T04:45:56;20.73;;;11.75;;
12480;SDS011;6305;48.398;11.762;2023-07-13T04:48:25;20.35;;;12.43;;
12480;SDS011;6305;48.398;11.762;2023-07-13T04:50:55;17.95;;;12.00;;
12480;SDS011;6305;48.398;11.762;2023-07-13T04:53:23;17.67;;;11.50;;
12480;SDS011;6305;48.398;11.762;2023-07-13T04:55:50;16.50;;;11.63;;
12480;SDS011;6305;48.398;11.762;2023-07-13T04:58:17;16.30;;;11.40;;
12480;SDS011;6305;48.398;11.762;2023-07-13T05:00:45;16.73;;;11.20;;
12480;SDS011;6305;48.398;11.762;2023-07-13T05:03:13;16.85;;;11.20;;
12480;SDS011;6305;48.398;11.762;2023-07-13T05:05:41;17.42;;;10.68;;
12480;SDS011;6305;48.398;11.762;2023-07-13T05:08:08;16.50;;;11.27;;
12480;SDS011;6305;48.398;11.762;2023-07-13T05:10:35;16.65;;;10.48;;
12480;SDS011;6305;48.398;11.762;2023-07-13T05:13:02;15.70;;;10.05;;
12480;SDS011;6305;48.398;11.762;2023-07-13T05:15:30;16.65;;;10.27;;
12480;SDS011;6305;48.398;11.762;2023-07-13T05:17:57;16.30;;;10.82;;
12480;SDS011;6305;48.398;11.762;2023-07-13T05:20:23;15.25;;;10.13;;
12480;SDS011;6305;48.398;11.762;2023-07-13T05:22:52;15.45;;;11.05;;
12480;SDS011;6305;48.398;11.762;2023-07-13T05:25:19;15.32;;;10.45;;
12480;SDS011;6305;48.398;11.762;2023-07-13T05:27:45;12.55;;;10.02;;
12480;SDS011;6305;48.398;11.762;2023-07-13T05:30:13;14.10;;;9.63;;
12480;SDS011;6305;48.398;11.762;2023-07-13T05:32:40;14.15;;;9.60;;
12480;SDS011;6305;48.398;11.762;2023-07-13T05:35:07;15.35;;;10.05;;
12480;SDS011;6305;48.398;11.762;2023-07-13T05:37:37;13.30;;;9.32;;
12480;SDS011;6305;48.398;11.762;2023-07-13T05:40:07;13.85;;;9.18;;
12480;SDS011;6305;48.398;11.762;2023-07-13T05:42:34;14.98;;;9.32;;
12480;SDS011;6305;48.398;11.762;2023-07-13T05:45:02;10.38;;;8.40;;
12480;SDS011;6305;48.398;11.762;2023-07-13T05:47:29;14.38;;;8.35;;
12480;SDS011;6305;48.398;11.762;2023-07-13T05:49:56;8.90;;;7.45;;
12480;SDS011;6305;48.398;11.762;2023-07-13T05:52:23;10.90;;;7.03;;
12480;SDS011;6305;48.398;11.762;2023-07-13T05:54:50;10.23;;;7.78;;
12480;SDS011;6305;48.398;11.762;2023-07-13T05:57:19;7.20;;;6.45;;
12480;SDS011;6305;48.398;11.762;2023-07-13T05:59:46;9.07;;;6.78;;
12480;SDS011;6305;48.398;11.762;2023-07-13T06:02:13;8.73;;;6.32;;
12480;SDS011;6305;48.398;11.762;2023-07-13T06:04:40;8.40;;;6.57;;
12480;SDS011;6305;48.398;11.762;2023-07-13T06:07:07;6.85;;;5.93;;
12480;SDS011;6305;48.398;11.762;2023-07-13T06:09:34;8.80;;;6.25;;
12480;SDS011;6305;48.398;11.762;2023-07-13T06:12:01;6.88;;;5.60;;
12480;SDS011;6305;48.398;11.762;2023-07-13T06:14:29;6.55;;;4.28;;
12480;SDS011;6305;48.398;11.762;2023-07-13T06:16:56;5.22;;;3.63;;
12480;SDS011;6305;48.398;11.762;2023-07-13T06:19:24;5.70;;;3.90;;
12480;SDS011;6305;48.398;11.762;2023-07-13T06:21:51;7.13;;;3.35;;
12480;SDS011;6305;48.398;11.762;2023-07-13T06:24:18;5.72;;;3.10;;
12480;SDS011;6305;48.398;11.762;2023-07-13T06:26:44;5.05;;;2.53;;
12480;SDS011;6305;48.398;11.762;2023-07-13T06:29:12;3.28;;;2.88;;
12480;SDS011;6305;48.398;11.762;2023-07-13T06:31:40;2.72;;;2.53;;
12480;SDS011;6305;48.398;11.762;2023-07-13T06:34:07;3.90;;;2.78;;
12480;SDS011;6305;48.398;11.762;2023-07-13T06:36:34;4.40;;;2.35;;
12480;SDS011;6305;48.398;11.762;2023-07-13T06:39:04;4.80;;;2.90;;
12480;SDS011;6305;48.398;11.762;2023-07-13T06:41:32;5.72;;;2.60;;
12480;SDS011;6305;48.398;11.762;2023-07-13T06:44:00;5.28;;;2.45;;
12480;SDS011;6305;48.398;11.762;2023-07-13T06:46:28;4.93;;;2.28;;
12480;SDS011;6305;48.398;11.762;2023-07-13T06:48:56;4.63;;;2.28;;
12480;SDS011;6305;48.398;11.762;2023-07-13T06:51:23;4.18;;;2.20;;
12480;SDS011;6305;48.398;11.762;2023-07-13T06:53:51;5.28;;;2.17;;
12480;SDS011;6305;48.398;11.762;2023-07-13T06:56:18;4.88;;;2.03;;
12480;SDS011;6305;48.398;11.762;2023-07-13T06:58:45;4.13;;;1.88;;
12480;SDS011;6305;48.398;11.762;2023-07-13T07:01:12;2.92;;;1.73;;
12480;SDS011;6305;48.398;11.762;2023-07-13T07:03:39;4.35;;;2.15;;
12480;SDS011;6305;48.398;11.762;2023-07-13T07:06:09;4.72;;;2.30;;
12480;SDS011;6305;48.398;11.762;2023-07-13T07:08:41;3.28;;;2.35;;
12480;SDS011;6305;48.398;11.762;2023-07-13T07:11:08;5.63;;;2.15;;
12480;SDS011;6305;48.398;11.762;2023-07-13T07:13:38;4.20;;;2.40;;
12480;SDS011;6305;48.398;11.762;2023-07-13T07:16:05;3.00;;;2.00;;
12480;SDS011;6305;48.398;11.762;2023-07-13T07:18:34;2.65;;;2.25;;
12480;SDS011;6305;48.398;11.762;2023-07-13T07:21:01;6.70;;;2.10;;
12480;SDS011;6305;48.398;11.762;2023-07-13T07:23:30;3.50;;;2.00;;
12480;SDS011;6305;48.398;11.762;2023-07-13T07:25:57;5.18;;;2.20;;
12480;SDS011;6305;48.398;11.762;2023-07-13T07:28:24;3.92;;;2.10;;
12480;SDS011;6305;48.398;11.762;2023-07-13T07:30:54;3.83;;;2.00;;
12480;SDS011;6305;48.398;11.762;2023-07-13T07:33:22;3.85;;;2.25;;
12480;SDS011;6305;48.398;11.762;2023-07-13T07:35:49;3.92;;;2.13;;
12480;SDS011;6305;48.398;11.762;2023-07-13T07:38:17;4.07;;;1.95;;
12480;SDS011;6305;48.398;11.762;2023-07-13T07:40:45;4.70;;;2.10;;
12480;SDS011;6305;48.398;11.762;2023-07-13T07:43:12;4.70;;;2.00;;
12480;SDS011;6305;48.398;11.762;2023-07-13T07:45:39;3.08;;;2.40;;
12480;SDS011;6305;48.398;11.762;2023-07-13T07:48:07;5.55;;;2.38;;
12480;SDS011;6305;48.398;11.762;2023-07-13T07:50:35;4.45;;;2.40;;
12480;SDS011;6305;48.398;11.762;2023-07-13T07:53:04;3.97;;;2.38;;
12480;SDS011;6305;48.398;11.762;2023-07-13T07:55:32;4.72;;;2.13;;
12480;SDS011;6305;48.398;11.762;2023-07-13T07:58:02;3.72;;;2.03;;
12480;SDS011;6305;48.398;11.762;2023-07-13T08:00:29;3.50;;;2.10;;
12480;SDS011;6305;48.398;11.762;2023-07-13T08:02:57;2.65;;;2.17;;
12480;SDS011;6305;48.398;11.762;2023-07-13T08:05:24;3.08;;;2.45;;
12480;SDS011;6305;48.398;11.762;2023-07-13T08:07:51;4.93;;;2.17;;
12480;SDS011;6305;48.398;11.762;2023-07-13T08:10:18;3.55;;;2.28;;
12480;SDS011;6305;48.398;11.762;2023-07-13T08:12:45;3.38;;;2.20;;
12480;SDS011;6305;48.398;11.762;2023-07-13T08:15:14;2.97;;;2.17;;
12480;SDS011;6305;48.398;11.762;2023-07-13T08:17:43;2.42;;;1.85;;
12480;SDS011;6305;48.398;11.762;2023-07-13T08:20:10;2.35;;;1.95;;
12480;SDS011;6305;48.398;11.762;2023-07-13T08:22:37;4.10;;;2.13;;
12480;SDS011;6305;48.398;11.762;2023-07-13T08:25:04;4.57;;;1.95;;
12480;SDS011;6305;48.398;11.762;2023-07-13T08:27:32;3.47;;;2.03;;
12480;SDS011;6305;48.398;11.762;2023-07-13T08:29:59;2.92;;;1.90;;
12480;SDS011;6305;48.398;11.762;2023-07-13T08:32:27;4.93;;;1.80;;
12480;SDS011;6305;48.398;11.762;2023-07-13T08:34:54;3.17;;;2.00;;
12480;SDS011;6305;48.398;11.762;2023-07-13T08:37:21;2.95;;;2.00;;
12480;SDS011;6305;48.398;11.762;2023-07-13T08:39:48;5.60;;;2.30;;
12480;SDS011;6305;48.398;11.762;2023-07-13T08:42:18;3.80;;;1.92;;
12480;SDS011;6305;48.398;11.762;2023-07-13T08:45:02;4.47;;;2.15;;
12480;SDS011;6305;48.398;11.762;2023-07-13T08:47:38;3.42;;;1.80;;
12480;SDS011;6305;48.398;11.762;2023-07-13T08:50:10;5.30;;;1.80;;
12480;SDS011;6305;48.398;11.762;2023-07-13T08:52:41;4.50;;;1.95;;
12480;SDS011;6305;48.398;11.762;2023-07-13T08:55:11;3.00;;;1.40;;
12480;SDS011;6305;48.398;11.762;2023-07-13T08:57:41;2.53;;;1.50;;
12480;SDS011;6305;48.398;11.762;2023-07-13T09:00:10;2.78;;;1.50;;
12480;SDS011;6305;48.398;11.762;2023-07-13T09:02:42;2.60;;;1.60;;
12480;SDS011;6305;48.398;11.762;2023-07-13T09:05:15;4.95;;;1.88;;
12480;SDS011;6305;48.398;11.762;2023-07-13T09:07:53;3.58;;;2.15;;
12480;SDS011;6305;48.398;11.762;2023-07-13T09:10:28;2.42;;;1.52;;
12480;SDS011;6305;48.398;11.762;2023-07-13T09:13:06;3.47;;;1.80;;
12480;SDS011;6305;48.398;11.762;2023-07-13T09:15:44;6.00;;;1.85;;
12480;SDS011;6305;48.398;11.762;2023-07-13T09:18:14;4.95;;;1.80;;
12480;SDS011;6305;48.398;11.762;2023-07-13T09:20:46;4.85;;;1.80;;
12480;SDS011;6305;48.398;11.762;2023-07-13T09:23:20;3.05;;;2.22;;
12480;SDS011;6305;48.398;11.762;2023-07-13T09:25:49;4.80;;;2.13;;
12480;SDS011;6305;48.398;11.762;2023-07-13T09:28:22;3.00;;;1.75;;
12480;SDS011;6305;48.398;11.762;2023-07-13T09:30:52;3.63;;;2.25;;
12480;SDS011;6305;48.398;11.762;2023-07-13T09:33:28;3.00;;;1.80;;
12480;SDS011;6305;48.398;11.762;2023-07-13T09:35:55;2.58;;;1.73;;
12480;SDS011;6305;48.398;11.762;2023-07-13T09:38:24;2.95;;;2.00;;
12480;SDS011;6305;48.398;11.762;2023-07-13T09:40:58;3.72;;;1.90;;
12480;SDS011;6305;48.398;11.762;2023-07-13T09:43:29;2.05;;;1.80;;
12480;SDS011;6305;48.398;11.762;2023-07-13T09:45:56;2.30;;;2.05;;
12480;SDS011;6305;48.398;11.762;2023-07-13T09:48:25;2.78;;;2.00;;
12480;SDS011;6305;48.398;11.762;2023-07-13T09:51:02;3.60;;;1.60;;
12480;SDS011;6305;48.398;11.762;2023-07-13T09:53:39;4.70;;;1.80;;
12480;SDS011;6305;48.398;11.762;2023-07-13T09:56:18;4.28;;;1.70;;
12480;SDS011;6305;48.398;11.762;2023-07-13T09:58:46;4.50;;;1.67;;
12480;SDS011;6305;48.398;11.762;2023-07-13T10:01:13;3.25;;;1.60;;
12480;SDS011;6305;48.398;11.762;2023-07-13T10:03:51;2.53;;;1.50;;
12480;SDS011;6305;48.398;11.762;2023-07-13T10:06:21;2.58;;;1.70;;
12480;SDS011;6305;48.398;11.762;2023-07-13T10:08:49;3.08;;;1.63;;
12480;SDS011;6305;48.398;11.762;2023-07-13T10:11:18;3.80;;;2.08;;
12480;SDS011;6305;48.398;11.762;2023-07-13T10:13:50;3.47;;;1.60;;
12480;SDS011;6305;48.398;11.762;2023-07-13T10:16:19;2.22;;;1.65;;
12480;SDS011;6305;48.398;11.762;2023-07-13T10:18:48;3.15;;;1.60;;
12480;SDS011;6305;48.398;11.762;2023-07-13T10:21:18;3.00;;;1.67;;
12480;SDS011;6305;48.398;11.762;2023-07-13T10:23:48;2.85;;;1.70;;
12480;SDS011;6305;48.398;11.762;2023-07-13T10:26:22;2.75;;;1.50;;
12480;SDS011;6305;48.398;11.762;2023-07-13T10:28:53;4.03;;;1.90;;
12480;SDS011;6305;48.398;11.762;2023-07-13T10:31:23;4.72;;;1.30;;
12480;SDS011;6305;48.398;11.762;2023-07-13T10:33:51;2.83;;;1.48;;
12480;SDS011;6305;48.398;11.762;2023-07-13T10:36:23;3.17;;;1.55;;
12480;SDS011;6305;48.398;11.762;2023-07-13T10:38:57;2.97;;;1.60;;
12480;SDS011;6305;48.398;11.762;2023-07-13T10:41:28;4.90;;;1.80;;
12480;SDS011;6305;48.398;11.762;2023-07-13T10:44:00;5.00;;;1.77;;
12480;SDS011;6305;48.398;11.762;2023-07-13T10:46:28;3.65;;;1.73;;
12480;SDS011;6305;48.398;11.762;2023-07-13T10:48:57;2.75;;;1.52;;
12480;SDS011;6305;48.398;11.762;2023-07-13T10:51:29;3.50;;;1.55;;
12480;SDS011;6305;48.398;11.762;2023-07-13T10:56:43;2.15;;;1.38;;
12480;SDS011;6305;48.398;11.762;2023-07-13T10:59:12;1.70;;;1.58;;
12480;SDS011;6305;48.398;11.762;2023-07-13T11:01:50;4.15;;;1.70;;
12480;SDS011;6305;48.398;11.762;2023-07-13T11:04:22;2.72;;;1.67;;
12480;SDS011;6305;48.398;11.762;2023-07-13T11:06:52;3.33;;;1.38;;
12480;SDS011;6305;48.398;11.762;2023-07-13T11:09:33;2.20;;;1.55;;
12480;SDS011;6305;48.398;11.762;2023-07-13T11:12:06;2.03;;;1.50;;
12480;SDS011;6305;48.398;11.762;2023-07-13T11:14:42;2.33;;;1.38;;
12480;SDS011;6305;48.398;11.762;2023-07-13T11:20:08;1.50;;;1.40;;
12480;SDS011;6305;48.398;11.762;2023-07-13T11:22:49;5.20;;;1.60;;
12480;SDS011;6305;48.398;11.762;2023-07-13T11:25:24;1.98;;;1.50;;
12480;SDS011;6305;48.398;11.762;2023-07-13T11:30:45;3.90;;;1.77;;
12480;SDS011;6305;48.398;11.762;2023-07-13T11:33:15;2.90;;;1.58;;
12480;SDS011;6305;48.398;11.762;2023-07-13T11:35:49;2.08;;;1.52;;
12480;SDS011;6305;48.398;11.762;2023-07-13T11:38:22;1.88;;;1.40;;
12480;SDS011;6305;48.398;11.762;2023-07-13T11:40:54;2.70;;;1.63;;
12480;SDS011;6305;48.398;11.762;2023-07-13T11:43:24;2.30;;;1.45;;
12480;SDS011;6305;48.398;11.762;2023-07-13T11:45:51;2.28;;;1.40;;
12480;SDS011;6305;48.398;11.762;2023-07-13T11:48:19;3.80;;;1.60;;
12480;SDS011;6305;48.398;11.762;2023-07-13T11:50:55;2.72;;;1.50;;
12480;SDS011;6305;48.398;11.762;2023-07-13T11:53:27;2.42;;;1.80;;
12480;SDS011;6305;48.398;11.762;2023-07-13T11:56:04;3.67;;;1.50;;
12480;SDS011;6305;48.398;11.762;2023-07-13T11:58:32;1.83;;;1.70;;
12480;SDS011;6305;48.398;11.762;2023-07-13T12:01:00;2.22;;;1.85;;
12480;SDS011;6305;48.398;11.762;2023-07-13T12:03:30;4.05;;;1.83;;
12480;SDS011;6305;48.398;11.762;2023-07-13T12:06:02;4.28;;;1.88;;
12480;SDS011;6305;48.398;11.762;2023-07-13T12:08:37;4.40;;;1.35;;
12480;SDS011;6305;48.398;11.762;2023-07-13T12:11:06;3.45;;;1.60;;
12480;SDS011;6305;48.398;11.762;2023-07-13T12:13:41;1.85;;;1.50;;
12480;SDS011;6305;48.398;11.762;2023-07-13T12:16:11;4.28;;;1.73;;
12480;SDS011;6305;48.398;11.762;2023-07-13T12:18:41;2.53;;;1.90;;
12480;SDS011;6305;48.398;11.762;2023-07-13T12:21:12;3.28;;;1.50;;
12480;SDS011;6305;48.398;11.762;2023-07-13T12:23:44;4.13;;;1.80;;
12480;SDS011;6305;48.398;11.762;2023-07-13T12:26:15;1.85;;;1.33;;
12480;SDS011;6305;48.398;11.762;2023-07-13T12:28:45;2.40;;;1.35;;
12480;SDS011;6305;48.398;11.762;2023-07-13T12:33:59;2.17;;;1.30;;
12480;SDS011;6305;48.398;11.762;2023-07-13T12:36:29;2.30;;;1.45;;
12480;SDS011;6305;48.398;11.762;2023-07-13T12:39:01;2.63;;;1.40;;
12480;SDS011;6305;48.398;11.762;2023-07-13T12:41:38;3.92;;;1.40;;
12480;SDS011;6305;48.398;11.762;2023-07-13T12:44:07;3.30;;;1.65;;
12480;SDS011;6305;48.398;11.762;2023-07-13T12:46:37;1.98;;;1.65;;
12480;SDS011;6305;48.398;11.762;2023-07-13T12:49:05;2.28;;;1.20;;
12480;SDS011;6305;48.398;11.762;2023-07-13T12:51:33;2.53;;;1.63;;
12480;SDS011;6305;48.398;11.762;2023-07-13T12:54:16;2.75;;;1.38;;
12480;SDS011;6305;48.398;11.762;2023-07-13T12:56:45;1.95;;;1.08;;
12480;SDS011;6305;48.398;11.762;2023-07-13T12:59:18;3.03;;;1.40;;
12480;SDS011;6305;48.398;11.762;2023-07-13T13:01:47;3.60;;;1.27;;
12480;SDS011;6305;48.398;11.762;2023-07-13T13:04:15;2.17;;;1.30;;
12480;SDS011;6305;48.398;11.762;2023-07-13T13:06:46;1.73;;;1.35;;
12480;SDS011;6305;48.398;11.762;2023-07-13T13:09:16;1.75;;;1.60;;
12480;SDS011;6305;48.398;11.762;2023-07-13T13:11:45;1.40;;;1.27;;
12480;SDS011;6305;48.398;11.762;2023-07-13T13:14:12;1.48;;;1.38;;
12480;SDS011;6305;48.398;11.762;2023-07-13T13:16:43;2.92;;;1.50;;
12480;SDS011;6305;48.398;11.762;2023-07-13T13:19:15;1.67;;;1.58;;
12480;SDS011;6305;48.398;11.762;2023-07-13T13:21:44;3.63;;;2.05;;
12480;SDS011;6305;48.398;11.762;2023-07-13T13:24:12;2.70;;;1.50;;
12480;SDS011;6305;48.398;11.762;2023-07-13T13:26:41;3.15;;;1.40;;
12480;SDS011;6305;48.398;11.762;2023-07-13T13:29:13;2.85;;;1.85;;
12480;SDS011;6305;48.398;11.762;2023-07-13T13:31:42;2.05;;;1.55;;
12480;SDS011;6305;48.398;11.762;2023-07-13T13:34:10;2.30;;;1.40;;
12480;SDS011;6305;48.398;11.762;2023-07-13T13:36:41;2.95;;;1.60;;
12480;SDS011;6305;48.398;11.762;2023-07-13T13:39:19;2.58;;;1.60;;
12480;SDS011;6305;48.398;11.762;2023-07-13T13:41:51;1.48;;;1.30;;
12480;SDS011;6305;48.398;11.762;2023-07-13T13:44:19;2.80;;;1.58;;
12480;SDS011;6305;48.398;11.762;2023-07-13T13:46:47;2.13;;;1.58;;
12480;SDS011;6305;48.398;11.762;2023-07-13T13:49:17;4.03;;;1.90;;
12480;SDS011;6305;48.398;11.762;2023-07-13T13:51:45;3.75;;;1.83;;
12480;SDS011;6305;48.398;11.762;2023-07-13T13:54:12;2.97;;;1.67;;
12480;SDS011;6305;48.398;11.762;2023-07-13T13:56:41;3.53;;;2.17;;
12480;SDS011;6305;48.398;11.762;2023-07-13T13:59:10;2.47;;;1.67;;
12480;SDS011;6305;48.398;11.762;2023-07-13T14:01:38;2.58;;;1.63;;
12480;SDS011;6305;48.398;11.762;2023-07-13T14:04:05;3.17;;;1.80;;
12480;SDS011;6305;48.398;11.762;2023-07-13T14:06:33;3.95;;;1.70;;
12480;SDS011;6305;48.398;11.762;2023-07-13T14:09:00;2.47;;;1.77;;
12480;SDS011;6305;48.398;11.762;2023-07-13T14:11:29;2.47;;;1.50;;
12480;SDS011;6305;48.398;11.762;2023-07-13T14:13:58;2.55;;;1.30;;
12480;SDS011;6305;48.398;11.762;2023-07-13T14:16:29;2.28;;;1.80;;
12480;SDS011;6305;48.398;11.762;2023-07-13T14:18:58;3.47;;;1.70;;
12480;SDS011;6305;48.398;11.762;2023-07-13T14:21:26;3.30;;;1.88;;
12480;SDS011;6305;48.398;11.762;2023-07-13T14:23:54;2.15;;;1.60;;
12480;SDS011;6305;48.398;11.762;2023-07-13T14:26:22;3.25;;;1.70;;
12480;SDS011;6305;48.398;11.762;2023-07-13T14:28:51;2.15;;;1.67;;
12480;SDS011;6305;48.398;11.762;2023-07-13T14:31:19;3.15;;;1.80;;
12480;SDS011;6305;48.398;11.762;2023-07-13T14:33:48;2.85;;;2.00;;
12480;SDS011;6305;48.398;11.762;2023-07-13T14:36:24;1.60;;;1.40;;
12480;SDS011;6305;48.398;11.762;2023-07-13T14:38:54;1.70;;;1.40;;
12480;SDS011;6305;48.398;11.762;2023-07-13T14:41:21;2.95;;;1.60;;
12480;SDS011;6305;48.398;11.762;2023-07-13T14:43:48;2.67;;;1.70;;
12480;SDS011;6305;48.398;11.762;2023-07-13T14:46:18;3.05;;;1.83;;
12480;SDS011;6305;48.398;11.762;2023-07-13T14:48:58;2.08;;;1.60;;
12480;SDS011;6305;48.398;11.762;2023-07-13T14:51:28;2.13;;;1.50;;
12480;SDS011;6305;48.398;11.762;2023-07-13T14:53:55;2.15;;;1.55;;
12480;SDS011;6305;48.398;11.762;2023-07-13T14:56:22;2.25;;;1.50;;
12480;SDS011;6305;48.398;11.762;2023-07-13T14:58:49;2.25;;;1.52;;
12480;SDS011;6305;48.398;11.762;2023-07-13T15:01:17;3.10;;;1.65;;